Armidale, Australia
Current Conditions -  °F | °C
As of 4:00 AM on Saturday 01 Nov 2014 (Local Time) from YSTW Reporting Station
Scattered Clouds Scattered Clouds  
Wind Chill: 72°   Ceiling: Unl
Heat Index: 72°   Visibility: 6mi
Dew Point: 54°   Wind: 21mph
Humidity: 53%   Direction: 360°N
Pressure: 29.83"   Gusts: NA
Location:  30.52°S, 151.67°E
Report Text: YSTW 311700Z AUTO 36018KT 9999 // SCT017 22/12 Q1010
Loading
Personal Weather Stations






























Interactive Weather Map
Tropical Storm Tracking
New forecast layout! Learn more

10-Day Weather Forecast

Advertisements
Track Severe Weather on mobile